Time;durP1;ratioP1;P1;durP2;ratioP2;P2;SDS_P1;SDS_P2;PMS_P1;PMS_P2;Temp;Humidity;BMP_temperature;BMP_pressure;BME280_temperature;BME280_humidity;BME280_pressure;Samples;Min_cycle;Max_cycle;Signal;HPM_P1;HPM_P2
2023/09/03 00:01:03;;;;;;;9.30;6.07;;;17.60;99.90;;;;;;5041626;28;20056;-76
2023/09/03 00:03:49;;;;;;;8.50;6.07;;;17.60;99.90;;;;;;5035695;28;20059;-75
2023/09/03 00:06:35;;;;;;;8.70;6.03;;;17.60;99.90;;;;;;5026001;28;20052;-76
2023/09/03 00:09:21;;;;;;;10.13;5.78;;;17.50;99.90;;;;;;5032542;28;20037;-77
2023/09/03 00:12:07;;;;;;;10.07;6.68;;;17.50;99.90;;;;;;5010198;28;20045;-76
2023/09/03 00:14:54;;;;;;;7.80;5.60;;;17.50;99.90;;;;;;5050514;28;20398;-76
2023/09/03 00:17:40;;;;;;;10.13;5.73;;;17.50;99.90;;;;;;5031198;28;20835;-77
2023/09/03 00:20:26;;;;;;;8.32;5.63;;;17.40;99.90;;;;;;5038318;28;20268;-77
2023/09/03 00:23:12;;;;;;;8.35;4.82;;;17.40;99.90;;;;;;5036471;28;20108;-76
2023/09/03 00:25:59;;;;;;;7.05;4.82;;;17.50;99.90;;;;;;5051096;28;20037;-76
2023/09/03 00:28:45;;;;;;;7.82;5.47;;;17.40;99.90;;;;;;5035524;28;20914;-75
2023/09/03 00:31:31;;;;;;;7.15;5.47;;;17.40;99.90;;;;;;5040653;28;20124;-75
2023/09/03 00:34:17;;;;;;;8.65;5.20;;;17.40;99.90;;;;;;5049980;28;20036;-77
2023/09/03 00:37:03;;;;;;;6.60;4.70;;;17.40;99.90;;;;;;5052620;28;20029;-76
2023/09/03 00:39:49;;;;;;;8.07;5.13;;;17.40;99.90;;;;;;5046834;28;20041;-76
2023/09/03 00:42:35;;;;;;;8.73;5.15;;;17.40;99.90;;;;;;5036447;28;20041;-76
2023/09/03 00:45:21;;;;;;;7.03;5.07;;;17.30;99.90;;;;;;5020184;28;20504;-76
2023/09/03 00:48:09;;;;;;;7.95;5.15;;;17.30;99.90;;;;;;5042221;28;20041;-76
2023/09/03 00:50:56;;;;;;;5.95;4.30;;;17.20;99.90;;;;;;5040284;28;20044;-75
2023/09/03 00:53:45;;;;;;;6.57;5.03;;;17.20;99.90;;;;;;5060402;28;20041;-75
2023/09/03 00:56:31;;;;;;;6.18;4.47;;;17.10;99.90;;;;;;5044926;28;20334;-75
2023/09/03 00:59:18;;;;;;;5.00;3.95;;;17.10;99.90;;;;;;5036176;28;20053;-74
2023/09/03 01:02:04;;;;;;;6.30;4.10;;;17.10;99.90;;;;;;5024906;28;20037;-75
2023/09/03 01:04:50;;;;;;;6.32;4.25;;;17.10;99.90;;;;;;5031557;28;20051;-74
2023/09/03 01:07:36;;;;;;;6.75;4.20;;;17.10;99.90;;;;;;5029196;28;20119;-75
2023/09/03 01:10:24;;;;;;;7.13;4.22;;;17.00;99.90;;;;;;5031682;28;20085;-74
2023/09/03 01:13:49;;;;;;;7.70;4.13;;;17.00;99.90;;;;;;5064325;28;20036;-74
2023/09/03 01:16:40;;;;;;;6.30;3.90;;;16.90;99.90;;;;;;5052337;28;20063;-75
2023/09/03 01:19:47;;;;;;;7.03;4.35;;;16.90;99.90;;;;;;5045889;28;20060;-75
2023/09/03 01:22:52;;;;;;;;;;;16.90;99.90;;;;;;5035586;28;20163;-75
2023/09/03 01:25:50;;;;;;;5.22;4.18;;;16.80;99.90;;;;;;5048993;28;20423;-75
2023/09/03 01:28:39;;;;;;;5.07;4.00;;;16.80;99.90;;;;;;5050090;28;20414;-77
2023/09/03 01:31:25;;;;;;;6.10;4.40;;;16.80;99.90;;;;;;5023688;28;20128;-75
2023/09/03 01:34:12;;;;;;;6.63;4.00;;;16.70;99.90;;;;;;5057338;28;20751;-75
2023/09/03 01:36:58;;;;;;;7.30;4.57;;;16.70;99.90;;;;;;5035816;28;20048;-76
2023/09/03 01:39:45;;;;;;;6.82;4.55;;;16.60;99.90;;;;;;5024742;28;20052;-76
2023/09/03 01:42:31;;;;;;;6.80;4.55;;;16.60;99.90;;;;;;5040528;28;20364;-76
2023/09/03 01:45:17;;;;;;;7.40;4.80;;;16.60;99.90;;;;;;5057925;28;20123;-76
2023/09/03 01:48:08;;;;;;;6.47;4.43;;;16.60;99.90;;;;;;5046220;28;20046;-75
2023/09/03 01:51:17;;;;;;;8.82;5.20;;;16.50;99.90;;;;;;5044996;28;20124;-76
2023/09/03 01:54:26;;;;;;;7.13;5.07;;;16.50;99.90;;;;;;5039872;28;20039;-76
2023/09/03 01:57:33;;;;;;;7.53;4.60;;;16.40;99.90;;;;;;5043988;28;20041;-77
2023/09/03 02:00:19;;;;;;;7.43;5.10;;;16.50;99.90;;;;;;5053347;28;20048;-76
2023/09/03 02:03:05;;;;;;;7.47;4.88;;;16.50;99.90;;;;;;5042658;28;20038;-75
2023/09/03 02:05:51;;;;;;;8.27;4.97;;;16.40;99.90;;;;;;5044086;28;20079;-76
2023/09/03 02:08:37;;;;;;;7.43;5.63;;;16.40;99.90;;;;;;5040188;28;20040;-76
2023/09/03 02:11:23;;;;;;;9.75;5.55;;;16.40;99.90;;;;;;5025986;28;20043;-75
2023/09/03 02:14:09;;;;;;;9.60;5.10;;;16.40;99.90;;;;;;5040277;28;20045;-75
2023/09/03 02:16:55;;;;;;;9.02;5.43;;;16.40;99.90;;;;;;5069345;28;20033;-76
2023/09/03 02:19:41;;;;;;;9.05;5.20;;;16.40;99.90;;;;;;5049440;28;20135;-75
2023/09/03 02:22:26;;;;;;;5.53;4.90;;;16.30;99.90;;;;;;5039253;28;20032;-75
2023/09/03 02:25:13;;;;;;;8.85;5.68;;;16.30;99.90;;;;;;5040737;28;20150;-76
2023/09/03 02:27:59;;;;;;;8.50;5.07;;;16.30;99.90;;;;;;5037639;28;20033;-75
2023/09/03 02:30:45;;;;;;;7.63;5.25;;;16.30;99.90;;;;;;5033583;28;20038;-76
2023/09/03 02:33:31;;;;;;;8.85;5.10;;;16.30;99.90;;;;;;5028891;28;20128;-76
2023/09/03 02:36:17;;;;;;;9.13;5.75;;;16.30;99.90;;;;;;5023044;28;20047;-75
2023/09/03 02:39:06;;;;;;;9.45;5.43;;;16.30;99.90;;;;;;5045531;28;20036;-75
2023/09/03 02:41:52;;;;;;;8.10;4.95;;;16.40;99.90;;;;;;5024891;28;20370;-75
2023/09/03 02:44:38;;;;;;;9.20;6.18;;;16.30;99.90;;;;;;5053678;28;20080;-75
2023/09/03 02:47:26;;;;;;;10.07;5.50;;;16.30;99.90;;;;;;5036543;28;20106;-75
2023/09/03 02:50:12;;;;;;;9.38;5.65;;;16.30;99.90;;;;;;5032820;28;20076;-75
2023/09/03 02:52:58;;;;;;;9.10;6.38;;;16.30;99.90;;;;;;5014885;28;20162;-76
2023/09/03 02:55:44;;;;;;;10.07;5.97;;;16.20;99.90;;;;;;5043238;28;20041;-76
2023/09/03 02:58:30;;;;;;;8.45;5.30;;;16.20;99.90;;;;;;5049683;28;20049;-76
2023/09/03 03:01:17;;;;;;;8.23;5.60;;;16.20;99.90;;;;;;5035426;28;20037;-76
2023/09/03 03:04:04;;;;;;;8.40;5.85;;;16.20;99.90;;;;;;5049599;28;20051;-76
2023/09/03 03:06:50;;;;;;;10.38;5.30;;;16.10;99.90;;;;;;5043966;28;20064;-75
2023/09/03 03:09:36;;;;;;;10.07;5.88;;;16.10;99.90;;;;;;5033802;28;20045;-76
2023/09/03 03:12:22;;;;;;;7.90;5.95;;;16.10;99.90;;;;;;5045865;28;20824;-76
2023/09/03 03:15:08;;;;;;;8.88;6.07;;;16.10;99.90;;;;;;5039818;28;20045;-76
2023/09/03 03:17:54;;;;;;;8.43;6.00;;;16.10;99.90;;;;;;5026656;28;20053;-75
2023/09/03 03:20:40;;;;;;;8.00;5.70;;;16.00;99.90;;;;;;5020287;28;20077;-75
2023/09/03 03:23:26;;;;;;;10.45;6.30;;;16.00;99.90;;;;;;5031100;28;20048;-75
2023/09/03 03:26:12;;;;;;;7.85;6.47;;;16.00;99.90;;;;;;5024348;28;20699;-74
2023/09/03 03:28:58;;;;;;;8.50;5.93;;;16.00;99.90;;;;;;5026662;28;20118;-76
2023/09/03 03:31:44;;;;;;;12.52;6.30;;;16.00;99.90;;;;;;5051482;28;20037;-76
2023/09/03 03:34:30;;;;;;;9.48;6.10;;;16.00;99.90;;;;;;5014750;28;20041;-77
2023/09/03 03:37:16;;;;;;;8.95;6.40;;;16.00;99.90;;;;;;5032781;28;20049;-76
2023/09/03 03:40:03;;;;;;;10.02;6.82;;;15.90;99.90;;;;;;5030572;28;20040;-76
2023/09/03 03:42:50;;;;;;;10.13;6.63;;;15.90;99.90;;;;;;5064401;28;20056;-76
2023/09/03 03:45:36;;;;;;;9.75;6.68;;;15.80;99.90;;;;;;5056143;28;20341;-76
2023/09/03 03:48:22;;;;;;;8.88;6.20;;;15.80;99.90;;;;;;5017735;28;20147;-76
2023/09/03 03:51:08;;;;;;;9.23;7.13;;;15.80;99.90;;;;;;5068509;28;20032;-74
2023/09/03 03:53:55;;;;;;;11.88;6.50;;;15.70;99.90;;;;;;5045907;28;20583;-76
2023/09/03 03:56:42;;;;;;;11.50;6.90;;;15.70;99.90;;;;;;5051160;28;20040;-76
2023/09/03 03:59:28;;;;;;;10.40;6.85;;;15.70;99.90;;;;;;5024042;28;20076;-75
2023/09/03 04:02:14;;;;;;;8.85;6.50;;;15.70;99.90;;;;;;5050976;28;20048;-75
2023/09/03 04:05:00;;;;;;;10.45;7.28;;;15.70;99.90;;;;;;5022433;28;20036;-75
2023/09/03 04:07:46;;;;;;;10.13;7.18;;;15.70;99.90;;;;;;5043607;28;20554;-76
2023/09/03 04:10:31;;;;;;;10.35;7.35;;;15.70;99.90;;;;;;5050220;28;20115;-76
2023/09/03 04:13:17;;;;;;;10.77;7.15;;;15.60;99.90;;;;;;5028324;28;20051;-76
2023/09/03 04:16:16;;;;;;;8.25;6.13;;;15.70;99.90;;;;;;5049321;28;20048;-76
2023/09/03 04:19:02;;;;;;;10.00;6.65;;;15.60;99.90;;;;;;5053422;28;20048;-76
2023/09/03 04:21:48;;;;;;;8.82;6.85;;;15.60;99.90;;;;;;5037999;28;20669;-75
2023/09/03 04:24:34;;;;;;;8.75;6.75;;;15.60;99.90;;;;;;5039787;28;20097;-76
2023/09/03 04:27:20;;;;;;;9.40;7.45;;;15.60;99.90;;;;;;5034079;28;20037;-76
2023/09/03 04:30:07;;;;;;;12.60;7.35;;;15.50;99.90;;;;;;5064166;28;20043;-76
2023/09/03 04:32:53;;;;;;;11.15;7.10;;;15.50;99.90;;;;;;5050061;28;20033;-76
2023/09/03 04:35:39;;;;;;;10.50;7.47;;;15.50;99.90;;;;;;5053122;28;20052;-76
2023/09/03 04:38:26;;;;;;;9.43;7.15;;;15.50;99.90;;;;;;5044165;28;20041;-76
2023/09/03 04:41:12;;;;;;;10.25;7.07;;;15.50;99.90;;;;;;5024047;28;20127;-76
2023/09/03 04:44:06;;;;;;;12.20;7.22;;;15.40;99.90;;;;;;5031931;28;20041;-76
2023/09/03 04:46:52;;;;;;;9.57;7.50;;;15.40;99.90;;;;;;5033264;28;20128;-76
2023/09/03 04:49:38;;;;;;;9.35;7.35;;;15.40;99.90;;;;;;5061134;28;20101;-77
2023/09/03 04:52:24;;;;;;;10.60;6.95;;;15.40;99.90;;;;;;5037583;28;20095;-76
2023/09/03 04:55:11;;;;;;;11.50;8.10;;;15.40;99.90;;;;;;5022270;28;20052;-76
2023/09/03 04:57:57;;;;;;;10.50;7.45;;;15.40;99.90;;;;;;5014825;28;20118;-76
2023/09/03 05:00:43;;;;;;;11.45;7.15;;;15.40;99.90;;;;;;5029877;28;20041;-76
2023/09/03 05:03:30;;;;;;;10.23;7.43;;;15.30;99.90;;;;;;5035446;28;20386;-76
2023/09/03 05:06:16;;;;;;;9.23;7.63;;;15.30;99.90;;;;;;5041264;28;20048;-76
2023/09/03 05:09:02;;;;;;;12.18;7.28;;;15.30;99.90;;;;;;5045922;28;20041;-76
2023/09/03 05:11:48;;;;;;;9.77;7.40;;;15.30;99.90;;;;;;5045243;28;20033;-76
2023/09/03 05:14:34;;;;;;;12.93;7.47;;;15.30;99.90;;;;;;5035994;28;20128;-75
2023/09/03 05:17:20;;;;;;;13.85;7.60;;;15.30;99.90;;;;;;5037260;28;20092;-76
2023/09/03 05:20:08;;;;;;;9.80;7.53;;;15.30;99.90;;;;;;5036104;28;20114;-75
2023/09/03 05:22:54;;;;;;;12.93;7.68;;;15.30;99.90;;;;;;5011460;28;20098;-76
2023/09/03 05:25:42;;;;;;;11.98;7.95;;;15.20;99.90;;;;;;5050756;28;20585;-76
2023/09/03 05:28:28;;;;;;;11.13;8.18;;;15.20;99.90;;;;;;5030411;28;20405;-76
2023/09/03 05:31:15;;;;;;;11.18;8.55;;;15.20;99.90;;;;;;5046393;28;20049;-75
2023/09/03 05:34:03;;;;;;;10.57;7.40;;;15.20;99.90;;;;;;5045401;28;20040;-76
2023/09/03 05:36:49;;;;;;;13.20;8.35;;;15.20;99.90;;;;;;5027762;28;20353;-75
2023/09/03 05:39:36;;;;;;;11.75;8.70;;;15.20;99.90;;;;;;5029401;28;20135;-75
2023/09/03 05:42:22;;;;;;;12.40;8.30;;;15.20;99.90;;;;;;5051077;28;20481;-76
2023/09/03 05:45:08;;;;;;;12.50;7.35;;;15.20;99.90;;;;;;5043741;28;20040;-76
2023/09/03 05:47:54;;;;;;;12.85;8.15;;;15.20;99.90;;;;;;5044286;28;20044;-75
2023/09/03 05:50:40;;;;;;;13.55;8.80;;;15.20;99.90;;;;;;5033392;28;20121;-75
2023/09/03 05:53:26;;;;;;;12.57;8.70;;;15.20;99.90;;;;;;5062759;28;20072;-76
2023/09/03 05:56:12;;;;;;;10.50;9.05;;;15.20;99.90;;;;;;5038797;28;20097;-76
2023/09/03 05:59:04;;;;;;;11.60;9.52;;;15.20;99.90;;;;;;5032215;28;20041;-76
2023/09/03 06:01:49;;;;;;;13.13;8.43;;;15.30;99.90;;;;;;5057742;28;20033;-76
2023/09/03 06:04:35;;;;;;;11.25;8.73;;;15.20;99.90;;;;;;5025284;28;20053;-75
2023/09/03 06:07:21;;;;;;;13.80;8.20;;;15.30;99.90;;;;;;5044554;28;20044;-76
2023/09/03 06:10:08;;;;;;;13.35;9.73;;;15.30;99.90;;;;;;5037997;28;20041;-76
2023/09/03 06:12:53;;;;;;;12.55;9.05;;;15.30;99.90;;;;;;5054897;28;20128;-76
2023/09/03 06:15:39;;;;;;;10.00;7.80;;;15.30;99.90;;;;;;5027757;28;20122;-76
2023/09/03 06:18:25;;;;;;;9.95;7.60;;;15.40;99.90;;;;;;5042458;28;20083;-75
2023/09/03 06:21:11;;;;;;;11.75;9.25;;;15.40;99.90;;;;;;5021938;28;20448;-76
2023/09/03 06:23:57;;;;;;;14.50;8.25;;;15.40;99.90;;;;;;5053674;28;20048;-76
2023/09/03 06:26:43;;;;;;;11.45;8.60;;;15.40;99.90;;;;;;5049970;28;20040;-76
2023/09/03 06:29:29;;;;;;;15.23;8.57;;;15.40;99.90;;;;;;5053006;28;20098;-76
2023/09/03 06:32:15;;;;;;;13.00;7.82;;;15.40;99.90;;;;;;5057243;28;20032;-75
2023/09/03 06:35:03;;;;;;;11.65;7.90;;;15.40;99.90;;;;;;5034713;28;20068;-75
2023/09/03 06:37:48;;;;;;;11.90;7.53;;;15.50;99.90;;;;;;5028240;28;20037;-76
2023/09/03 06:40:34;;;;;;;15.05;8.50;;;15.50;99.90;;;;;;5034366;28;20040;-76
2023/09/03 06:43:20;;;;;;;12.52;7.50;;;15.60;99.90;;;;;;5043675;28;20044;-75
2023/09/03 06:46:07;;;;;;;11.95;6.60;;;15.60;99.90;;;;;;5032148;28;20044;-74
2023/09/03 06:48:54;;;;;;;12.27;7.35;;;15.60;99.90;;;;;;5021400;28;20041;-74
2023/09/03 06:51:40;;;;;;;11.45;7.53;;;15.70;99.90;;;;;;5027814;28;20101;-74
2023/09/03 06:54:26;;;;;;;10.32;6.88;;;15.70;99.90;;;;;;5024849;28;20048;-74
2023/09/03 06:57:12;;;;;;;13.75;7.60;;;15.70;99.90;;;;;;5073579;28;20059;-74
2023/09/03 06:59:58;;;;;;;11.05;6.93;;;15.70;99.90;;;;;;5038694;28;20041;-76
2023/09/03 07:02:44;;;;;;;15.68;7.82;;;15.80;99.90;;;;;;5040436;28;20037;-75
2023/09/03 07:05:29;;;;;;;9.85;5.97;;;15.70;99.90;;;;;;5024606;28;20120;-75
2023/09/03 07:08:15;;;;;;;8.82;5.63;;;15.80;99.90;;;;;;5028093;28;20563;-75
2023/09/03 07:11:01;;;;;;;10.85;6.28;;;15.90;99.90;;;;;;5043606;28;20525;-74
2023/09/03 07:13:49;;;;;;;9.35;4.57;;;15.90;99.90;;;;;;5068281;28;20033;-75
2023/09/03 07:16:35;;;;;;;9.60;5.13;;;15.90;99.90;;;;;;5021814;28;20120;-74
2023/09/03 07:19:22;;;;;;;8.05;4.80;;;16.00;99.90;;;;;;5034386;28;20052;-76
2023/09/03 07:22:08;;;;;;;8.88;4.90;;;16.00;99.90;;;;;;5038964;28;20373;-75
2023/09/03 07:24:54;;;;;;;8.52;4.30;;;16.10;99.90;;;;;;5050858;28;20123;-75
2023/09/03 07:27:40;;;;;;;5.63;4.32;;;16.10;99.90;;;;;;5040174;28;20037;-76
2023/09/03 07:30:26;;;;;;;8.05;4.47;;;16.20;99.90;;;;;;5037080;28;20041;-76
2023/09/03 07:33:13;;;;;;;8.15;4.32;;;16.30;99.90;;;;;;5070251;28;20039;-75
2023/09/03 07:35:59;;;;;;;10.40;5.30;;;16.30;99.90;;;;;;5019880;28;20087;-76
2023/09/03 07:38:45;;;;;;;10.20;4.35;;;16.30;99.90;;;;;;5044737;28;20052;-75
2023/09/03 07:41:35;;;;;;;6.70;3.95;;;16.40;99.90;;;;;;5050619;28;20036;-76
2023/09/03 07:44:20;;;;;;;5.70;3.20;;;16.40;99.90;;;;;;5033155;28;20045;-76
2023/09/03 07:47:06;;;;;;;10.93;4.00;;;16.50;99.90;;;;;;5045561;28;20037;-75
2023/09/03 07:49:52;;;;;;;7.25;3.38;;;16.50;99.90;;;;;;5035001;28;20047;-76
2023/09/03 07:52:38;;;;;;;9.40;4.03;;;16.60;99.90;;;;;;5018240;28;20037;-76
2023/09/03 07:55:24;;;;;;;5.63;3.38;;;16.60;99.90;;;;;;5036537;28;20059;-75
2023/09/03 07:58:10;;;;;;;7.97;3.20;;;16.70;99.90;;;;;;5034726;28;20041;-75
2023/09/03 08:00:56;;;;;;;6.05;2.95;;;16.70;99.90;;;;;;5039660;28;20427;-75
2023/09/03 08:03:43;;;;;;;6.03;3.13;;;16.70;99.90;;;;;;5036196;28;20075;-76
2023/09/03 08:06:29;;;;;;;6.28;2.92;;;16.80;99.90;;;;;;5050427;28;20055;-76
2023/09/03 08:09:15;;;;;;;7.65;3.13;;;16.90;99.90;;;;;;5046282;28;20043;-76
2023/09/03 08:12:01;;;;;;;7.68;2.95;;;16.90;99.90;;;;;;5033289;28;20048;-76
2023/09/03 08:14:48;;;;;;;8.00;2.72;;;17.00;99.90;;;;;;5051515;28;20040;-76
2023/09/03 08:17:34;;;;;;;5.43;2.40;;;17.00;99.90;;;;;;5026546;28;20056;-75
2023/09/03 08:20:21;;;;;;;8.65;2.28;;;17.00;99.90;;;;;;5051637;28;20052;-76
2023/09/03 08:23:11;;;;;;;6.30;2.45;;;17.10;99.90;;;;;;5041014;28;20484;-76
2023/09/03 08:25:57;;;;;;;5.60;1.92;;;17.20;99.90;;;;;;5048484;28;20072;-76
2023/09/03 08:28:43;;;;;;;7.10;2.10;;;17.20;99.90;;;;;;5026061;28;20051;-75
2023/09/03 08:31:32;;;;;;;6.22;1.80;;;17.20;99.90;;;;;;5019878;28;20033;-77
2023/09/03 08:34:18;;;;;;;5.03;1.92;;;17.30;99.90;;;;;;5040659;28;20033;-76
2023/09/03 08:37:07;;;;;;;4.28;1.83;;;17.20;99.90;;;;;;5057556;28;20377;-75
2023/09/03 08:39:53;;;;;;;5.35;2.13;;;17.40;99.90;;;;;;5057823;28;20817;-76
2023/09/03 08:42:40;;;;;;;4.30;1.83;;;17.40;99.90;;;;;;5036392;28;20071;-75
2023/09/03 08:45:27;;;;;;;7.28;1.83;;;17.40;99.90;;;;;;5025564;28;20431;-75
2023/09/03 08:48:13;;;;;;;3.97;1.63;;;17.30;99.90;;;;;;5054034;28;20033;-75
2023/09/03 08:50:59;;;;;;;6.15;1.88;;;17.20;99.90;;;;;;5032602;28;20071;-75
2023/09/03 08:53:45;;;;;;;6.97;1.85;;;17.30;99.90;;;;;;5035693;28;20048;-75
2023/09/03 08:56:33;;;;;;;5.38;1.80;;;17.30;99.90;;;;;;5042212;28;20076;-76
2023/09/03 08:59:19;;;;;;;5.07;1.95;;;17.40;99.90;;;;;;5051168;28;20040;-75
2023/09/03 09:02:11;;;;;;;6.32;1.90;;;17.40;99.90;;;;;;5050361;28;20179;-75
2023/09/03 09:04:57;;;;;;;4.53;1.58;;;17.50;99.90;;;;;;5021893;28;20041;-75
2023/09/03 09:07:43;;;;;;;3.83;1.67;;;17.60;99.90;;;;;;5045694;28;20047;-76
2023/09/03 09:10:32;;;;;;;5.53;1.48;;;17.70;99.90;;;;;;5025378;28;20758;-75
2023/09/03 09:13:20;;;;;;;2.85;1.25;;;17.80;99.90;;;;;;5025862;28;20041;-75
2023/09/03 09:16:06;;;;;;;3.70;1.50;;;17.80;99.90;;;;;;5022896;28;20464;-76
2023/09/03 09:18:52;;;;;;;3.80;1.58;;;17.80;99.90;;;;;;5033768;28;20091;-76
2023/09/03 09:21:38;;;;;;;4.95;1.70;;;17.80;99.90;;;;;;5033895;28;20037;-74
2023/09/03 09:24:25;;;;;;;2.90;1.10;;;17.90;99.90;;;;;;5024723;28;20470;-75
2023/09/03 09:27:19;;;;;;;4.05;1.40;;;17.90;99.90;;;;;;5034400;28;20127;-75
2023/09/03 09:30:12;;;;;;;2.85;1.30;;;17.90;99.90;;;;;;5063222;28;20135;-75
2023/09/03 09:33:05;;;;;;;3.38;1.23;;;17.90;99.90;;;;;;5046736;28;20033;-76
2023/09/03 09:35:53;;;;;;;8.82;1.48;;;18.10;99.90;;;;;;5041179;28;20088;-75
2023/09/03 09:38:39;;;;;;;8.25;1.65;;;18.10;99.90;;;;;;5028918;28;20042;-77
2023/09/03 09:41:26;;;;;;;8.13;1.70;;;18.30;99.90;;;;;;5040021;28;20041;-76
2023/09/03 09:44:14;;;;;;;4.77;1.33;;;18.40;99.90;;;;;;5031609;28;20369;-77
2023/09/03 09:47:15;;;;;;;3.75;1.52;;;18.50;99.90;;;;;;5021964;28;20119;-76
2023/09/03 09:50:03;;;;;;;5.05;1.70;;;18.60;99.90;;;;;;5042847;28;20116;-77
2023/09/03 09:52:49;;;;;;;7.63;1.50;;;18.70;99.90;;;;;;5036814;28;20041;-77
2023/09/03 09:55:35;;;;;;;4.05;1.30;;;18.60;99.90;;;;;;5024893;28;20048;-77
2023/09/03 09:58:21;;;;;;;3.47;1.00;;;18.70;99.90;;;;;;5075933;28;20032;-77
2023/09/03 10:01:07;;;;;;;6.05;1.38;;;18.70;99.90;;;;;;5007870;28;20860;-77
2023/09/03 10:03:53;;;;;;;3.78;1.40;;;18.80;99.90;;;;;;5049336;28;20481;-77
2023/09/03 10:06:39;;;;;;;6.03;1.30;;;19.00;99.90;;;;;;5060685;28;20037;-78
2023/09/03 10:09:25;;;;;;;4.53;1.40;;;19.10;99.90;;;;;;5008525;28;20422;-77
2023/09/03 10:12:12;;;;;;;3.47;1.20;;;19.00;99.90;;;;;;5043761;28;20038;-76
2023/09/03 10:14:58;;;;;;;2.70;1.10;;;19.00;99.90;;;;;;5043946;28;20041;-77
2023/09/03 10:17:45;;;;;;;4.18;1.20;;;19.10;99.90;;;;;;5039286;28;20047;-77
2023/09/03 10:20:31;;;;;;;2.75;1.20;;;19.40;99.90;;;;;;5051995;28;20377;-77
2023/09/03 10:23:17;;;;;;;4.40;1.35;;;19.40;99.90;;;;;;5067192;28;20101;-78
2023/09/03 10:26:03;;;;;;;5.22;1.25;;;19.50;99.90;;;;;;5050288;28;20036;-77
2023/09/03 10:28:51;;;;;;;4.32;1.40;;;19.50;99.90;;;;;;5062750;28;20044;-76
2023/09/03 10:31:37;;;;;;;2.85;1.05;;;19.50;99.90;;;;;;5036539;28;20037;-76
2023/09/03 10:34:23;;;;;;;2.45;1.13;;;19.40;99.80;;;;;;5026710;28;20726;-77
2023/09/03 10:37:11;;;;;;;2.75;1.10;;;19.50;99.90;;;;;;5055945;28;20106;-77
2023/09/03 10:40:17;;;;;;;3.63;1.10;;;19.70;99.90;;;;;;5056793;28;20055;-76
2023/09/03 10:43:23;;;;;;;3.53;1.00;;;19.90;99.90;;;;;;5026455;28;20500;-78
2023/09/03 10:46:09;;;;;;;5.60;1.40;;;20.10;99.60;;;;;;5033622;28;20107;-77
2023/09/03 10:48:56;;;;;;;1.80;0.93;;;20.20;99.10;;;;;;5011635;28;20045;-76
2023/09/03 10:51:43;;;;;;;2.33;1.00;;;20.10;99.00;;;;;;5021190;28;20033;-77
2023/09/03 10:54:29;;;;;;;3.40;1.10;;;20.30;99.80;;;;;;5015185;28;20033;-76
2023/09/03 10:57:15;;;;;;;5.32;1.50;;;20.30;99.40;;;;;;5028473;28;20858;-77
2023/09/03 11:00:04;;;;;;;4.70;1.05;;;20.50;99.90;;;;;;5047091;28;20048;-76
2023/09/03 11:02:50;;;;;;;2.10;1.30;;;20.50;98.40;;;;;;5052657;28;20040;-76
2023/09/03 11:05:37;;;;;;;3.20;1.10;;;20.50;98.80;;;;;;5031710;28;20049;-77
2023/09/03 11:08:31;;;;;;;4.30;1.23;;;20.50;99.10;;;;;;5044766;28;20043;-77
2023/09/03 11:11:20;;;;;;;4.03;1.40;;;20.50;97.80;;;;;;5043694;28;20033;-76
2023/09/03 11:14:07;;;;;;;5.40;1.48;;;20.50;97.10;;;;;;5062057;28;20051;-76
2023/09/03 11:16:53;;;;;;;2.05;1.02;;;20.60;98.70;;;;;;5040871;28;20580;-77
2023/09/03 11:19:40;;;;;;;1.95;0.90;;;20.50;95.20;;;;;;5034097;28;20086;-75
2023/09/03 11:22:28;;;;;;;3.53;1.17;;;20.40;96.30;;;;;;5056397;28;20045;-75
2023/09/03 11:25:13;;;;;;;2.38;1.05;;;20.50;97.00;;;;;;5039620;28;20068;-76
2023/09/03 11:28:00;;;;;;;5.40;1.13;;;20.60;96.10;;;;;;5033400;28;20469;-75
2023/09/03 11:30:48;;;;;;;;;;;20.60;96.50;;;;;;5039538;28;20061;-75
2023/09/03 11:33:34;;;;;;;4.25;1.20;;;20.60;95.80;;;;;;5043812;28;20394;-72
2023/09/03 11:36:26;;;;;;;2.40;1.00;;;20.50;96.20;;;;;;5035960;28;20052;-74
2023/09/03 11:39:15;;;;;;;1.83;1.00;;;20.60;96.50;;;;;;5036333;28;20045;-73
2023/09/03 11:42:01;;;;;;;4.93;1.02;;;20.70;96.40;;;;;;5048262;28;20037;-72
2023/09/03 11:44:51;;;;;;;4.80;1.10;;;20.70;95.50;;;;;;5023068;28;20041;-74
2023/09/03 11:47:40;;;;;;;3.28;0.98;;;20.80;95.60;;;;;;5028749;28;20028;-73
2023/09/03 11:50:26;;;;;;;1.60;1.15;;;20.80;95.70;;;;;;5040859;28;20365;-73
2023/09/03 11:53:12;;;;;;;1.65;0.98;;;20.80;96.00;;;;;;5066803;28;20036;-76
2023/09/03 11:56:01;;;;;;;3.22;0.90;;;20.90;95.60;;;;;;5024423;28;20058;-74
2023/09/03 11:58:50;;;;;;;3.47;1.00;;;20.80;93.10;;;;;;5025528;28;20045;-75
2023/09/03 12:01:36;;;;;;;1.77;0.90;;;20.70;93.10;;;;;;5029605;28;20050;-75
2023/09/03 12:04:22;;;;;;;2.38;0.73;;;20.70;93.20;;;;;;5021599;28;20110;-75
2023/09/03 12:07:17;;;;;;;1.98;0.90;;;20.70;94.00;;;;;;5035432;28;20041;-74
2023/09/03 12:10:05;;;;;;;2.30;1.00;;;20.70;93.50;;;;;;5018654;28;20029;-74
2023/09/03 12:12:52;;;;;;;3.07;0.80;;;20.80;93.50;;;;;;5029916;28;20029;-75
2023/09/03 12:15:38;;;;;;;2.83;1.42;;;20.90;92.30;;;;;;5056574;28;20358;-74
2023/09/03 12:18:24;;;;;;;1.90;0.95;;;21.10;91.50;;;;;;5030818;28;20263;-74
2023/09/03 12:21:10;;;;;;;2.65;1.55;;;21.20;91.10;;;;;;5045877;28;20114;-74
2023/09/03 12:23:56;;;;;;;1.75;0.80;;;21.10;91.80;;;;;;5047799;28;20037;-77
2023/09/03 12:26:42;;;;;;;2.10;1.00;;;21.40;92.50;;;;;;5033256;28;20045;-77
2023/09/03 12:29:28;;;;;;;1.50;0.88;;;21.50;91.50;;;;;;5011566;28;20481;-76
2023/09/03 12:32:14;;;;;;;2.10;1.00;;;21.50;91.90;;;;;;5028041;28;20056;-78
2023/09/03 12:35:00;;;;;;;2.15;0.90;;;21.80;92.20;;;;;;5029798;28;20124;-78
2023/09/03 12:37:46;;;;;;;5.00;1.40;;;22.10;92.70;;;;;;5019921;28;20041;-78
2023/09/03 12:40:32;;;;;;;2.40;1.10;;;22.20;92.90;;;;;;5046031;28;20069;-77
2023/09/03 12:43:18;;;;;;;2.63;0.80;;;22.40;92.60;;;;;;5058265;28;20040;-78
2023/09/03 12:46:04;;;;;;;3.80;1.20;;;22.30;91.60;;;;;;5058801;28;20048;-79
2023/09/03 12:48:50;;;;;;;2.88;1.30;;;22.40;91.90;;;;;;5047424;28;20538;-77
2023/09/03 12:51:39;;;;;;;3.95;1.10;;;22.30;90.90;;;;;;5068864;28;20538;-76
2023/09/03 12:54:27;;;;;;;1.90;1.10;;;22.30;91.50;;;;;;5025461;28;20098;-76
2023/09/03 12:57:13;;;;;;;3.83;1.10;;;22.60;92.60;;;;;;5056322;28;20033;-76
2023/09/03 13:00:00;;;;;;;2.70;1.00;;;22.90;91.70;;;;;;5068374;28;20832;-76
2023/09/03 13:02:46;;;;;;;1.08;0.80;;;23.00;90.50;;;;;;5042335;28;20040;-77
2023/09/03 13:05:32;;;;;;;1.67;0.93;;;22.70;87.50;;;;;;5056631;28;20041;-77
2023/09/03 13:08:18;;;;;;;1.65;1.00;;;22.50;87.50;;;;;;5035085;28;20037;-78
2023/09/03 13:11:04;;;;;;;3.97;1.35;;;22.70;88.70;;;;;;5041022;28;20072;-76
2023/09/03 13:13:50;;;;;;;2.72;1.00;;;23.10;90.10;;;;;;5061488;28;20516;-76
2023/09/03 13:16:38;;;;;;;1.42;1.00;;;23.40;90.10;;;;;;5013698;28;20055;-75
2023/09/03 13:19:24;;;;;;;1.67;1.00;;;23.60;88.60;;;;;;5051341;28;20056;-75
2023/09/03 13:22:10;;;;;;;5.50;1.23;;;23.50;90.00;;;;;;5025843;28;20045;-76
2023/09/03 13:24:56;;;;;;;2.10;1.00;;;23.70;90.20;;;;;;5054542;28;20037;-77
2023/09/03 13:27:42;;;;;;;3.55;1.17;;;23.60;89.00;;;;;;5055356;28;20040;-76
2023/09/03 13:30:27;;;;;;;2.70;0.98;;;23.90;89.00;;;;;;5054805;28;20037;-75
2023/09/03 13:33:13;;;;;;;2.08;1.00;;;23.60;88.70;;;;;;5060852;28;20036;-75
2023/09/03 13:35:59;;;;;;;2.03;1.10;;;23.60;88.60;;;;;;5032094;28;20044;-77
2023/09/03 13:38:46;;;;;;;1.80;0.88;;;23.40;86.30;;;;;;5040597;28;20482;-77
2023/09/03 13:41:32;;;;;;;2.40;1.00;;;23.40;87.90;;;;;;5048092;28;20482;-76
2023/09/03 13:44:18;;;;;;;2.17;1.27;;;23.40;87.20;;;;;;5045618;28;20036;-76
2023/09/03 13:47:05;;;;;;;1.85;1.10;;;23.50;88.30;;;;;;5039414;28;20076;-75
2023/09/03 13:49:51;;;;;;;3.05;0.95;;;23.90;88.20;;;;;;5054079;28;20041;-77
2023/09/03 13:52:37;;;;;;;1.40;0.80;;;23.90;88.10;;;;;;5012997;28;20033;-76
2023/09/03 13:55:24;;;;;;;1.33;1.00;;;23.80;86.50;;;;;;5042680;28;20037;-76
2023/09/03 13:58:10;;;;;;;1.65;0.80;;;23.80;88.40;;;;;;5023595;28;20099;-75
2023/09/03 14:00:56;;;;;;;4.80;0.93;;;24.20;87.40;;;;;;5038021;28;20052;-76
2023/09/03 14:03:42;;;;;;;1.45;1.02;;;24.40;88.50;;;;;;5043424;28;20083;-75
2023/09/03 14:06:29;;;;;;;1.92;1.10;;;24.70;87.80;;;;;;5039161;28;20045;-76
2023/09/03 14:09:16;;;;;;;1.60;0.90;;;24.50;88.00;;;;;;5033446;28;20045;-74
2023/09/03 14:12:03;;;;;;;4.03;1.20;;;24.50;88.40;;;;;;5043358;28;20118;-77
2023/09/03 14:14:49;;;;;;;2.72;1.10;;;24.70;89.40;;;;;;5033715;28;20085;-77
2023/09/03 14:17:35;;;;;;;3.22;1.30;;;24.90;87.40;;;;;;5022550;28;20092;-77
2023/09/03 14:20:21;;;;;;;4.10;1.60;;;24.60;87.40;;;;;;5055571;28;20083;-77
2023/09/03 14:23:07;;;;;;;2.20;1.00;;;25.00;88.50;;;;;;5050145;28;20493;-76
2023/09/03 14:25:53;;;;;;;6.50;1.17;;;25.50;88.80;;;;;;5022290;28;20053;-76
2023/09/03 14:28:39;;;;;;;2.85;1.13;;;25.90;89.20;;;;;;5054746;28;20041;-77